Decoded Metar for EBBE (BEAUVECHAIN in BELGIUM) (IATA:N/A) | Meteo·Mobile Aviation Weather
aviador You're here:

EBBE Decoded Metar

BEAUVECHAIN in BELGIUM
Report Time2019-03-23 15:55:00
UTC Time2019-03-23 16:22:53
Flight Rules ifr IFR
WindVRB at 02 kt
Visibility4900 m
Phenomena:N/A
Clouds:Overcast 034 Hf
Expected CloudBase > 1,200 ft AGL from Temp-Dew spread
Ceiling3,400 ft
Temp10°C (ISA -4)
Dew Point07°C (82% RH)
AAT8.6°C
QNH1030 hPa
Density Alt-518 ft
Elevation417 ft
Report Wrong Elevation
Raw Report
METAR EBBE 231555Z AUTO VRB02KT 4900 OVC034/// 10/07 Q1030 GRN=

Extra information for EBBE:More info

Metar Taf Metar & Taf Last 4 Metars F.Rules Stats Wind Profile Meteogram Temp Stats Airport Information Weather charts Add Link Nearby VenuesMetar ALERT Operation Metar Decoded Social comments